Time;durP1;ratioP1;P1;durP2;ratioP2;P2;SDS_P1;SDS_P2;PMS_P1;PMS_P2;Temp;Humidity;BMP_temperature;BMP_pressure;BME280_temperature;BME280_humidity;BME280_pressure;Samples;Min_cycle;Max_cycle;Signal;HPM_P1;HPM_P2
2021/06/26 00:02:21;;;;;;;;;8.50;7.25;;;;;18.58;80.40;101524.91;4941690;28;45479;-80
2021/06/26 00:04:47;;;;;;;;;6.00;5.25;;;;;18.58;80.20;101524.03;4940536;28;46298;-81
2021/06/26 00:07:12;;;;;;;;;5.00;5.00;;;;;18.57;80.70;101525.84;4941584;28;45622;-81
2021/06/26 00:09:37;;;;;;;;;4.50;4.50;;;;;18.57;80.21;101530.31;4941954;28;45416;-81
2021/06/26 00:12:03;;;;;;;;;7.00;7.00;;;;;18.57;80.77;101528.50;4943619;28;45567;-81
2021/06/26 00:14:29;;;;;;;;;7.75;7.75;;;;;18.56;80.89;101528.63;4941293;28;47615;-80
2021/06/26 00:16:54;;;;;;;;;7.50;7.00;;;;;18.57;81.38;101530.31;4943676;28;45516;-80
2021/06/26 00:19:19;;;;;;;;;10.75;6.00;;;;;18.56;80.75;101533.94;4945973;28;45408;-81
2021/06/26 00:21:45;;;;;;;;;6.75;6.00;;;;;18.56;80.98;101534.78;4943683;28;45344;-79
2021/06/26 00:24:10;;;;;;;;;7.50;7.50;;;;;18.56;80.92;101534.78;4942638;28;45641;-81
2021/06/26 00:26:36;;;;;;;;;8.50;7.25;;;;;18.58;80.59;101537.34;4940428;28;45415;-81
2021/06/26 00:29:02;;;;;;;;;9.50;8.00;;;;;18.58;80.93;101534.69;4941602;28;45272;-80
2021/06/26 00:31:28;;;;;;;;;8.75;7.25;;;;;18.57;80.97;101528.50;4943680;28;45486;-81
2021/06/26 00:33:53;;;;;;;;;6.75;6.00;;;;;18.56;81.01;101529.47;4941749;28;46037;-81
2021/06/26 00:36:18;;;;;;;;;10.00;7.75;;;;;18.55;80.36;101527.78;4939126;28;45800;-81
2021/06/26 00:38:44;;;;;;;;;8.25;8.00;;;;;18.55;80.45;101534.91;4942800;28;45874;-81
2021/06/26 00:41:09;;;;;;;;;8.50;8.00;;;;;18.54;80.72;101530.53;4940604;28;45581;-79
2021/06/26 00:43:35;;;;;;;;;9.75;8.75;;;;;18.55;81.05;101529.59;4938005;28;48063;-80
2021/06/26 00:46:01;;;;;;;;;14.00;8.75;;;;;18.55;81.25;101535.75;4940902;28;45504;-79
2021/06/26 00:48:26;;;;;;;;;9.50;8.00;;;;;18.55;81.14;101527.78;4934466;28;45548;-78
2021/06/26 00:50:52;;;;;;;;;8.75;8.25;;;;;18.56;81.64;101529.47;4936321;28;46962;-78
2021/06/26 00:53:18;;;;;;;;;9.50;8.75;;;;;18.57;80.82;101528.50;4934632;28;46290;-78
2021/06/26 00:55:51;;;;;;;;;8.00;8.00;;;;;18.57;80.65;101531.19;4933975;28;45744;-78
2021/06/26 00:58:17;;;;;;;;;8.25;8.25;;;;;18.55;81.01;101527.78;4936046;28;45415;-78
2021/06/26 01:00:43;;;;;;;;;11.50;8.25;;;;;18.55;81.07;101519.78;4933513;28;45560;-77
2021/06/26 01:03:09;;;;;;;;;7.25;6.50;;;;;18.52;81.33;101520.81;4933022;28;46006;-79
2021/06/26 01:05:34;;;;;;;;;9.00;8.00;;;;;18.51;80.79;101511.13;4934349;28;45637;-79
2021/06/26 01:08:00;;;;;;;;;10.75;9.50;;;;;18.48;80.80;101499.84;4934930;28;45574;-75
2021/06/26 01:10:26;;;;;;;;;9.25;9.00;;;;;18.46;81.60;101496.41;4933623;28;45497;-79
2021/06/26 01:12:51;;;;;;;;;10.50;10.50;;;;;18.43;81.61;101492.16;4937276;28;46341;-80
2021/06/26 01:15:17;;;;;;;;;10.00;7.25;;;;;18.39;81.15;101490.63;4937067;28;45452;-80
2021/06/26 01:17:43;;;;;;;;;9.00;8.00;;;;;18.37;81.62;101492.50;4937200;28;45779;-79
2021/06/26 01:20:10;;;;;;;;;7.75;6.75;;;;;18.33;81.61;101488.38;4937669;28;45331;-79
2021/06/26 01:22:47;;;;;;;;;8.50;8.50;;;;;18.30;81.82;101487.69;4938674;28;47044;-79
2021/06/26 01:25:15;;;;;;;;;9.75;9.00;;;;;18.25;81.53;101486.19;4936909;28;45710;-79
2021/06/26 01:27:41;;;;;;;;;8.50;7.25;;;;;18.22;81.86;101485.53;4938771;28;45426;-78
2021/06/26 01:30:07;;;;;;;;;10.25;9.25;;;;;18.20;81.86;101492.75;4936939;28;45386;-79
2021/06/26 01:32:33;;;;;;;;;9.50;8.25;;;;;18.18;82.09;101494.66;4937039;28;46027;-79
2021/06/26 01:34:58;;;;;;;;;11.50;10.25;;;;;18.16;81.99;101485.91;4937580;28;45285;-79
2021/06/26 01:37:24;;;;;;;;;7.75;6.75;;;;;18.14;82.22;101487.81;4938776;28;45520;-79
2021/06/26 01:39:49;;;;;;;;;8.00;6.75;;;;;18.12;82.11;101485.25;4935866;28;45582;-79
2021/06/26 01:42:15;;;;;;;;;10.75;8.00;;;;;18.11;81.74;101486.19;4936156;28;46274;-80
2021/06/26 01:44:40;;;;;;;;;9.33;9.33;;;;;18.12;81.92;101476.41;4936951;28;45326;-80
2021/06/26 01:47:07;;;;;;;;;5.50;5.50;;;;;18.11;82.11;101483.53;4935253;28;45381;-79
2021/06/26 01:49:33;;;;;;;;;7.00;6.00;;;;;18.12;82.09;101490.56;4938723;28;45455;-79
2021/06/26 01:51:58;;;;;;;;;8.00;6.00;;;;;18.13;81.65;101488.75;4938545;28;47296;-79
2021/06/26 01:54:24;;;;;;;;;10.00;7.00;;;;;18.14;81.96;101491.31;4936226;28;45214;-78
2021/06/26 01:56:49;;;;;;;;;10.75;7.75;;;;;18.16;82.24;101484.09;4937115;28;45286;-78
2021/06/26 01:59:15;;;;;;;;;6.50;6.50;;;;;18.17;81.69;101482.31;4936849;28;45456;-79
2021/06/26 02:01:40;;;;;;;;;7.75;7.00;;;;;18.14;81.88;101483.34;4936521;28;46169;-79
2021/06/26 02:04:06;;;;;;;;;6.25;6.00;;;;;18.17;82.21;101477.00;4936861;28;45514;-79
2021/06/26 02:06:31;;;;;;;;;9.25;7.50;;;;;18.19;82.42;101480.41;4936552;28;45886;-78
2021/06/26 02:08:57;;;;;;;;;8.00;7.25;;;;;18.19;82.27;101481.25;4936480;28;45418;-79
2021/06/26 02:11:22;;;;;;;;;9.25;8.00;;;;;18.19;82.00;101478.59;4936159;28;46283;-79
2021/06/26 02:13:48;;;;;;;;;7.50;7.50;;;;;18.17;82.24;101477.00;4937094;28;45512;-79
2021/06/26 02:16:13;;;;;;;;;9.00;8.00;;;;;18.16;81.99;101480.56;4938237;28;45581;-79
2021/06/26 02:18:38;;;;;;;;;9.00;8.50;;;;;18.17;81.99;101479.66;4935527;28;45452;-78
2021/06/26 02:21:04;;;;;;;;;9.25;8.00;;;;;18.17;82.35;101483.16;4936525;28;45409;-78
2021/06/26 02:23:30;;;;;;;;;8.00;6.75;;;;;18.18;82.06;101476.03;4936126;28;45947;-79
2021/06/26 02:25:55;;;;;;;;;8.00;8.00;;;;;18.17;82.09;101472.53;4937750;28;45659;-79
2021/06/26 02:28:21;;;;;;;;;8.00;8.00;;;;;18.18;81.98;101468.91;4944026;28;45408;-79
2021/06/26 02:30:46;;;;;;;;;8.50;7.25;;;;;18.17;82.19;101477.84;4943155;28;46016;-79
2021/06/26 02:33:12;;;;;;;;;7.00;7.00;;;;;18.17;82.41;101469.00;4942568;28;45352;-79
2021/06/26 02:35:38;;;;;;;;;10.75;9.00;;;;;18.17;82.26;101477.00;4944068;28;45567;-79
2021/06/26 02:38:03;;;;;;;;;7.25;6.25;;;;;18.17;82.23;101477.84;4942322;28;45437;-75
2021/06/26 02:40:29;;;;;;;;;9.75;9.25;;;;;18.18;82.27;101470.72;4943430;28;46450;-79
2021/06/26 02:42:54;;;;;;;;;11.75;9.50;;;;;18.19;82.22;101475.94;4942706;28;45525;-79
2021/06/26 02:45:19;;;;;;;;;10.00;10.00;;;;;18.21;82.31;101470.50;4943002;28;45616;-79
2021/06/26 02:47:45;;;;;;;;;8.25;7.00;;;;;18.19;82.16;101465.28;4942800;28;45281;-78
2021/06/26 02:50:11;;;;;;;;;14.50;11.00;;;;;18.19;82.26;101469.75;4943023;28;45450;-79
2021/06/26 02:52:36;;;;;;;;;10.50;8.50;;;;;18.19;82.28;101462.63;4944095;28;45752;-78
2021/06/26 02:55:03;;;;;;;;;11.50;10.50;;;;;18.19;82.20;101459.97;4958345;28;45268;-79
2021/06/26 02:57:28;;;;;;;;;12.75;9.00;;;;;18.18;82.47;101471.56;4943004;28;45470;-79
2021/06/26 02:59:54;;;;;;;;;10.25;9.00;;;;;18.19;82.44;101469.75;4941761;28;46085;-78
2021/06/26 03:02:19;;;;;;;;;9.75;9.50;;;;;18.20;82.74;101471.47;4940041;28;45599;-79
2021/06/26 03:04:44;;;;;;;;;9.50;9.00;;;;;18.19;82.32;101464.44;4938993;28;45503;-78
2021/06/26 03:07:10;;;;;;;;;12.75;11.50;;;;;18.20;82.46;101468.78;4937607;28;45431;-78
2021/06/26 03:09:36;;;;;;;;;13.50;13.00;;;;;18.19;82.25;101462.63;4934889;28;45877;-79
2021/06/26 03:12:02;;;;;;;;;8.50;8.25;;;;;18.17;82.65;101464.53;4935704;28;45680;-79
2021/06/26 03:14:28;;;;;;;;;13.00;12.50;;;;;18.18;82.67;101465.38;4934630;28;45638;-79
2021/06/26 03:16:53;;;;;;;;;14.50;11.25;;;;;18.17;82.41;101459.22;4936298;28;45291;-79
2021/06/26 03:19:18;;;;;;;;;10.25;9.00;;;;;18.18;82.68;101468.91;4937783;28;46801;-77
2021/06/26 03:21:44;;;;;;;;;14.25;13.00;;;;;18.18;82.46;101468.06;4935269;28;45399;-79
2021/06/26 03:24:09;;;;;;;;;12.50;10.25;;;;;18.19;82.82;101467.94;4944140;28;45356;-79
2021/06/26 03:26:34;;;;;;;;;11.25;11.25;;;;;18.21;82.51;101466.03;4940784;28;45526;-79
2021/06/26 03:29:04;;;;;;;;;14.00;11.50;;;;;18.21;82.92;101467.84;4935152;28;46982;-78
2021/06/26 03:31:30;;;;;;;;;15.00;13.25;;;;;18.21;83.20;101471.34;4934091;28;45763;-78
2021/06/26 03:33:55;;;;;;;;;15.75;14.50;;;;;18.20;83.16;101464.31;4933820;28;45498;-79
2021/06/26 03:36:21;;;;;;;;;17.50;14.25;;;;;18.23;82.87;101464.16;4935894;28;45527;-79
2021/06/26 03:38:46;;;;;;;;;13.25;10.75;;;;;18.22;82.53;101470.41;4934958;28;46621;-79
2021/06/26 03:41:12;;;;;;;;;13.50;12.00;;;;;18.21;83.21;101466.03;4935239;28;45411;-79
2021/06/26 03:43:38;;;;;;;;;15.00;14.75;;;;;18.21;82.54;101462.50;4936262;28;45430;-79
2021/06/26 03:46:03;;;;;;;;;12.75;11.75;;;;;18.22;82.61;101465.09;4934826;28;45541;-79
2021/06/26 03:48:28;;;;;;;;;12.00;12.00;;;;;18.22;83.01;101467.75;4934855;28;46133;-79
2021/06/26 03:50:58;;;;;;;;;14.75;14.00;;;;;18.20;82.75;101464.31;4934407;28;45458;-77
2021/06/26 03:53:23;;;;;;;;;15.25;13.50;;;;;18.21;83.23;101468.69;4935306;28;45698;-79
2021/06/26 03:55:52;;;;;;;;;20.00;16.00;;;;;18.20;83.31;101466.13;4950018;28;45718;-78
2021/06/26 03:58:25;;;;;;;;;15.50;15.25;;;;;18.19;83.33;101475.06;4936831;28;46256;-78
2021/06/26 04:00:51;;;;;;;;;13.25;12.50;;;;;18.18;83.58;101474.22;4934928;28;45723;-78
2021/06/26 04:03:17;;;;;;;;;16.00;13.25;;;;;18.20;83.57;101471.47;4934720;28;45793;-78
2021/06/26 04:05:44;;;;;;;;;14.00;13.00;;;;;18.17;83.45;101463.69;4934261;28;45523;-78
2021/06/26 04:08:10;;;;;;;;;14.50;13.75;;;;;18.16;83.32;101473.44;4934971;28;45556;-78
2021/06/26 04:10:35;;;;;;;;;13.00;11.75;;;;;18.13;83.34;101470.16;4936467;28;45729;-77
2021/06/26 04:13:01;;;;;;;;;15.50;12.50;;;;;18.11;83.46;101469.38;4935434;28;45467;-77
2021/06/26 04:15:26;;;;;;;;;12.75;11.50;;;;;18.10;83.05;101467.66;4934559;28;45515;-77
2021/06/26 04:17:52;;;;;;;;;11.25;11.25;;;;;18.08;83.27;101477.56;4934921;28;46082;-78
2021/06/26 04:20:17;;;;;;;;;13.00;8.75;;;;;18.07;83.39;101473.19;4934526;28;45497;-77
2021/06/26 04:22:45;;;;;;;;;13.00;11.00;;;;;18.05;83.61;101472.41;4935755;28;45598;-77
2021/06/26 04:25:12;;;;;;;;;13.75;11.50;;;;;18.04;83.49;101481.34;4934563;28;45381;-77
2021/06/26 04:27:37;;;;;;;;;12.25;10.75;;;;;18.03;83.04;101477.00;4934329;28;45439;-77
2021/06/26 04:30:03;;;;;;;;;13.50;12.00;;;;;17.99;83.17;101479.81;4935108;28;45503;-77
2021/06/26 04:32:29;;;;;;;;;9.50;8.50;;;;;17.95;83.36;101475.63;4933488;28;45346;-78
2021/06/26 04:34:55;;;;;;;;;8.50;7.50;;;;;17.93;83.19;101476.69;4934280;28;45615;-78
2021/06/26 04:37:20;;;;;;;;;10.75;8.00;;;;;17.89;83.12;101480.50;4936289;28;46900;-78
2021/06/26 04:39:45;;;;;;;;;13.25;8.00;;;;;17.88;83.91;101484.09;4934062;28;45435;-79
2021/06/26 04:42:11;;;;;;;;;9.50;7.50;;;;;17.87;83.40;101479.75;4935572;28;45371;-78
2021/06/26 04:44:36;;;;;;;;;7.00;7.00;;;;;17.84;83.81;101477.25;4937739;28;45464;-77
2021/06/26 04:47:02;;;;;;;;;8.25;6.75;;;;;17.80;83.63;101476.63;4936374;28;47306;-77
2021/06/26 04:49:28;;;;;;;;;6.75;6.75;;;;;17.81;84.09;101473.00;4954243;28;45409;-77
2021/06/26 04:51:53;;;;;;;;;11.75;6.50;;;;;17.79;83.86;101482.84;4937963;28;45593;-77
2021/06/26 04:54:18;;;;;;;;;8.75;7.75;;;;;17.79;84.13;101482.00;4938536;28;45583;-76
2021/06/26 04:56:44;;;;;;;;;9.75;8.50;;;;;17.81;84.19;101480.97;4937104;28;46047;-77
2021/06/26 04:59:09;;;;;;;;;7.50;7.50;;;;;17.83;83.71;101484.38;4938055;28;45397;-77
2021/06/26 05:01:34;;;;;;;;;10.00;9.00;;;;;17.86;83.67;101483.34;4937922;28;45317;-77
2021/06/26 05:04:00;;;;;;;;;9.50;7.25;;;;;17.88;83.72;101484.97;4935997;28;45301;-78
2021/06/26 05:06:25;;;;;;;;;9.25;8.50;;;;;17.90;83.70;101482.19;4937273;28;46153;-77
2021/06/26 05:08:51;;;;;;;;;9.00;8.00;;;;;17.94;83.53;101481.91;4936972;28;45417;-78
2021/06/26 05:11:16;;;;;;;;;8.25;6.00;;;;;17.96;83.38;101481.84;4936978;28;51340;-77
2021/06/26 05:13:41;;;;;;;;;10.75;7.75;;;;;17.98;83.30;101486.09;4937923;28;45369;-76
2021/06/26 05:16:07;;;;;;;;;7.00;7.00;;;;;17.99;83.09;101484.28;4938498;28;47053;-77
2021/06/26 05:18:32;;;;;;;;;9.00;8.00;;;;;18.00;83.69;101478.88;4937195;28;45472;-77
2021/06/26 05:20:57;;;;;;;;;7.25;7.25;;;;;18.04;83.50;101478.69;4937150;28;45442;-77
2021/06/26 05:23:23;;;;;;;;;5.50;5.00;;;;;18.06;82.95;101479.44;4937402;28;45730;-79
2021/06/26 05:25:49;;;;;;;;;8.25;7.25;;;;;18.07;83.43;101478.50;4937798;28;45854;-79
2021/06/26 05:28:15;;;;;;;;;6.50;6.50;;;;;18.06;83.18;101490.94;4938120;28;45432;-80
2021/06/26 05:30:42;;;;;;;;;7.25;6.50;;;;;18.08;82.81;101485.53;4937899;28;45377;-80
2021/06/26 05:33:07;;;;;;;;;8.00;7.75;;;;;18.08;83.04;101482.88;4937473;28;45474;-80
2021/06/26 05:35:34;;;;;;;;;8.00;7.25;;;;;18.08;82.98;101486.38;4936966;28;45316;-79
2021/06/26 05:37:59;;;;;;;;;9.00;7.25;;;;;18.09;83.24;101477.44;4937002;28;45408;-77
2021/06/26 05:40:25;;;;;;;;;5.50;4.25;;;;;18.11;82.90;101493.31;4938454;28;45433;-76
2021/06/26 05:42:50;;;;;;;;;5.00;5.00;;;;;18.08;82.81;101489.06;4935104;28;45392;-80
2021/06/26 05:45:16;;;;;;;;;8.00;5.25;;;;;18.05;82.50;101497.22;4935476;28;47328;-81
2021/06/26 05:47:41;;;;;;;;;4.75;4.75;;;;;18.02;82.59;101491.25;4936270;28;45468;-80
2021/06/26 05:50:07;;;;;;;;;8.00;5.00;;;;;18.02;82.56;101500.06;4935458;28;45552;-79
2021/06/26 05:52:32;;;;;;;;;4.75;4.50;;;;;18.01;82.47;101503.69;4937864;28;45425;-81
2021/06/26 05:54:58;;;;;;;;;6.25;5.50;;;;;17.97;82.34;101494.19;4936430;28;45385;-80
2021/06/26 05:57:24;;;;;;;;;5.50;4.00;;;;;17.99;83.05;101501.09;4936827;28;45317;-80
2021/06/26 05:59:49;;;;;;;;;5.00;5.00;;;;;18.00;82.05;101505.47;4936422;28;45507;-77
2021/06/26 06:02:15;;;;;;;;;5.00;5.00;;;;;18.00;82.30;101502.81;4936688;28;45490;-77
2021/06/26 06:04:41;;;;;;;;;7.50;5.25;;;;;18.03;82.46;101501.78;4936892;28;46318;-77
2021/06/26 06:07:10;;;;;;;;;6.00;6.00;;;;;18.06;82.49;101500.72;4937533;28;45419;-78
2021/06/26 06:09:36;;;;;;;;;7.00;6.50;;;;;18.07;82.49;101505.13;4935710;28;45524;-80
2021/06/26 06:12:02;;;;;;;;;4.75;4.75;;;;;18.12;82.67;101505.69;4934979;28;45555;-83
2021/06/26 06:14:27;;;;;;;;;4.25;4.25;;;;;18.15;82.10;101511.66;4934557;28;46240;-78
2021/06/26 06:16:53;;;;;;;;;6.00;6.00;;;;;18.17;82.15;101509.75;4935307;28;45488;-79
2021/06/26 06:19:18;;;;;;;;;8.25;6.00;;;;;18.17;82.49;101507.09;4936884;28;45407;-79
2021/06/26 06:21:44;;;;;;;;;6.50;4.75;;;;;18.17;81.82;101498.28;4934284;28;45479;-79
2021/06/26 06:24:09;;;;;;;;;6.00;6.00;;;;;18.24;82.53;101497.78;4936338;28;46010;-80
2021/06/26 06:26:34;;;;;;;;;6.00;6.00;;;;;18.28;82.17;101498.44;4935902;28;45484;-79
2021/06/26 06:28:59;;;;;;;;;4.00;4.00;;;;;18.30;81.80;101501.00;4936008;28;45440;-80
2021/06/26 06:31:25;;;;;;;;;5.00;5.00;;;;;18.32;82.34;101499.09;4938357;28;45628;-79
2021/06/26 06:33:50;;;;;;;;;7.50;6.25;;;;;18.35;81.78;101505.06;4936598;28;45387;-79
2021/06/26 06:36:15;;;;;;;;;5.00;4.75;;;;;18.34;82.26;101511.34;4933827;28;45519;-79
2021/06/26 06:38:41;;;;;;;;;4.25;4.25;;;;;18.34;81.40;101515.84;4934857;28;45502;-79
2021/06/26 06:41:06;;;;;;;;;7.25;5.50;;;;;18.32;81.50;101515.91;4935969;28;45446;-79
2021/06/26 06:43:31;;;;;;;;;5.75;4.75;;;;;18.31;81.99;101508.88;4936583;28;46312;-79
2021/06/26 06:45:57;;;;;;;;;3.75;3.50;;;;;18.32;82.05;101502.59;4935237;28;48030;-79
2021/06/26 06:48:22;;;;;;;;;6.00;6.00;;;;;18.35;81.95;101502.41;4936219;28;45326;-79
2021/06/26 06:50:48;;;;;;;;;4.50;4.50;;;;;18.35;81.55;101497.09;4936015;28;45553;-80
2021/06/26 06:53:13;;;;;;;;;6.25;6.25;;;;;18.36;82.21;101485.50;4936050;28;45565;-80
2021/06/26 06:55:38;;;;;;;;;4.50;4.00;;;;;18.39;81.78;101495.94;4937026;28;45238;-80
2021/06/26 06:58:04;;;;;;;;;8.00;4.75;;;;;18.42;82.01;101498.41;4935868;28;45831;-80
2021/06/26 07:00:29;;;;;;;;;5.00;4.00;;;;;18.43;82.02;101502.81;4934532;28;45404;-80
2021/06/26 07:02:54;;;;;;;;;5.75;4.00;;;;;18.43;81.95;101508.13;4936012;28;46165;-78
2021/06/26 07:05:20;;;;;;;;;5.00;5.00;;;;;18.42;82.00;101514.38;4934580;28;52531;-81
2021/06/26 07:07:45;;;;;;;;;5.00;5.00;;;;;18.42;82.05;101511.72;4936196;28;45817;-79
2021/06/26 07:10:11;;;;;;;;;4.00;4.00;;;;;18.43;82.13;101518.78;4937945;28;45349;-80
2021/06/26 07:12:37;;;;;;;;;6.00;6.00;;;;;18.46;82.13;101510.56;4934483;28;46409;-79
2021/06/26 07:15:03;;;;;;;;;5.25;4.50;;;;;18.53;82.04;101516.34;4934061;28;45466;-79
2021/06/26 07:17:29;;;;;;;;;5.00;4.00;;;;;18.62;82.10;101506.94;4935686;28;45922;-77
2021/06/26 07:19:54;;;;;;;;;5.00;5.00;;;;;18.68;81.67;101515.41;4936005;28;45594;-77
2021/06/26 07:22:19;;;;;;;;;6.75;5.50;;;;;18.75;81.63;101516.72;4937049;28;45634;-77
2021/06/26 07:24:45;;;;;;;;;7.00;7.00;;;;;18.80;81.18;101516.44;4934941;28;51039;-77
2021/06/26 07:27:11;;;;;;;;;8.00;7.00;;;;;18.82;81.46;101521.66;4935177;28;45686;-78
2021/06/26 07:29:36;;;;;;;;;7.00;7.00;;;;;18.85;80.77;101522.31;4935297;28;45564;-79
2021/06/26 07:32:02;;;;;;;;;9.25;8.25;;;;;18.87;81.18;101520.41;4935496;28;46793;-78
2021/06/26 07:34:27;;;;;;;;;7.75;7.75;;;;;18.92;81.53;101526.28;4934195;28;45594;-77
2021/06/26 07:36:53;;;;;;;;;45.50;36.50;;;;;18.97;81.45;101524.16;4932150;28;45611;-78
2021/06/26 07:39:18;;;;;;;;;8.75;8.75;;;;;19.03;81.57;101529.09;4932741;28;45472;-78
2021/06/26 07:41:44;;;;;;;;;7.50;7.00;;;;;19.11;80.66;101522.41;4922118;28;45963;-77
2021/06/26 07:44:09;;;;;;;;;11.00;7.50;;;;;19.14;81.09;101525.72;4933077;28;45521;-78
2021/06/26 07:46:34;;;;;;;;;8.00;8.00;;;;;19.16;80.15;101525.59;4932838;28;45818;-79
2021/06/26 07:49:00;;;;;;;;;9.50;7.50;;;;;19.15;80.97;101527.41;4933685;28;45743;-79
2021/06/26 07:51:25;;;;;;;;;11.00;9.25;;;;;19.12;80.24;101522.31;4932929;28;46192;-76
2021/06/26 07:53:51;;;;;;;;;6.75;6.75;;;;;19.08;80.24;101527.94;4932972;28;45415;-77
2021/06/26 07:56:16;;;;;;;;;9.75;8.50;;;;;19.03;79.92;101526.44;4933625;28;45789;-77
2021/06/26 07:58:41;;;;;;;;;8.50;6.75;;;;;19.04;80.72;101529.94;4933507;28;45379;-78
2021/06/26 08:01:07;;;;;;;;;11.50;7.50;;;;;19.10;80.73;101523.34;4933894;28;45469;-77
2021/06/26 08:03:32;;;;;;;;;9.00;9.00;;;;;19.18;80.63;101516.56;4932731;28;45430;-78
2021/06/26 08:05:57;;;;;;;;;6.25;6.25;;;;;19.29;80.83;101510.50;4932637;28;45998;-78
2021/06/26 08:08:23;;;;;;;;;9.00;8.00;;;;;19.33;80.21;101520.03;4933583;28;45439;-77
2021/06/26 08:10:49;;;;;;;;;6.50;6.25;;;;;19.33;80.63;101512.03;4931865;28;45743;-77
2021/06/26 08:13:15;;;;;;;;;8.00;8.00;;;;;19.34;79.68;101508.41;4933953;28;46085;-77
2021/06/26 08:15:42;;;;;;;;;8.00;7.00;;;;;19.34;80.01;101507.53;4933456;28;47703;-77
2021/06/26 08:18:08;;;;;;;;;7.75;7.75;;;;;19.34;79.99;101511.06;4935739;28;45539;-78
2021/06/26 08:20:34;;;;;;;;;8.25;6.25;;;;;19.34;79.58;101505.72;4937130;28;46385;-77
2021/06/26 08:23:00;;;;;;;;;8.50;7.25;;;;;19.30;79.59;101494.41;4936744;28;45611;-77
2021/06/26 08:25:26;;;;;;;;;7.00;6.00;;;;;19.37;79.72;101499.31;4936959;28;45663;-77
2021/06/26 08:27:51;;;;;;;;;10.75;7.50;;;;;19.41;79.72;101498.16;4936938;28;45450;-77
2021/06/26 08:30:17;;;;;;;;;5.75;5.00;;;;;19.48;78.98;101492.34;4936514;28;45860;-77
2021/06/26 08:32:43;;;;;;;;;7.25;7.00;;;;;19.59;79.38;101496.97;4936546;28;45897;-77
2021/06/26 08:35:09;;;;;;;;;13.75;8.50;;;;;19.69;79.48;101494.50;4935657;28;45464;-77
2021/06/26 08:37:35;;;;;;;;;8.50;8.00;;;;;19.83;79.39;101494.38;4937229;28;45573;-77
2021/06/26 08:40:01;;;;;;;;;8.00;8.00;;;;;19.92;78.42;101501.75;4936477;28;46024;-77
2021/06/26 08:42:26;;;;;;;;;9.50;8.25;;;;;20.01;78.29;101493.13;4936605;28;45313;-77
2021/06/26 08:44:58;;;;;;;;;11.75;9.00;;;;;20.09;77.91;101503.22;4936911;28;45324;-77
2021/06/26 08:47:24;;;;;;;;;10.50;9.00;;;;;20.05;77.46;101502.63;4936694;28;45452;-76
2021/06/26 08:49:49;;;;;;;;;9.50;9.50;;;;;19.99;78.27;101512.84;4936530;28;45942;-76
2021/06/26 08:52:15;;;;;;;;;11.25;8.75;;;;;19.96;77.93;101503.25;4937196;28;45308;-76
2021/06/26 08:54:40;;;;;;;;;8.00;8.00;;;;;19.96;78.26;101511.25;4936004;28;45514;-76
2021/06/26 08:57:06;;;;;;;;;7.50;7.50;;;;;20.05;77.63;101515.09;4936312;28;45418;-76
2021/06/26 08:59:32;;;;;;;;;8.25;8.25;;;;;20.12;78.47;101505.69;4935894;28;46371;-77
2021/06/26 09:01:57;;;;;;;;;10.50;8.75;;;;;20.24;78.43;101506.63;4936475;28;45352;-78
2021/06/26 09:04:23;;;;;;;;;10.00;10.00;;;;;20.42;77.83;101502.66;4936106;28;45378;-78
2021/06/26 09:06:57;;;;;;;;;11.50;10.25;;;;;20.57;76.59;101504.25;4936165;28;45416;-78
2021/06/26 09:09:36;;;;;;;;;11.50;9.75;;;;;20.71;76.61;101500.53;4935553;28;46141;-77
2021/06/26 09:12:06;;;;;;;;;10.25;7.75;;;;;20.84;76.50;101498.69;4935717;28;45542;-77
2021/06/26 09:14:36;;;;;;;;;9.00;8.50;;;;;21.06;75.44;101495.25;4936482;28;45485;-77
2021/06/26 09:17:03;;;;;;;;;8.75;7.75;;;;;21.19;75.42;101500.53;4920976;28;45353;-77
2021/06/26 09:19:29;;;;;;;;;11.00;8.75;;;;;21.22;73.87;101491.44;4936598;28;46269;-77
2021/06/26 09:22:10;;;;;;;;;6.75;6.50;;;;;21.29;74.38;101495.34;4935398;28;45425;-78
2021/06/26 09:24:47;;;;;;;;;11.25;8.25;;;;;21.44;75.08;101493.34;4935034;28;45970;-78
2021/06/26 09:27:15;;;;;;;;;8.75;8.75;;;;;21.58;74.22;101491.34;4935963;28;45451;-78
2021/06/26 09:29:51;;;;;;;;;11.25;9.50;;;;;21.88;73.42;101490.78;4934333;28;45755;-77
2021/06/26 09:32:27;;;;;;;;;11.25;9.50;;;;;22.72;74.03;101491.19;4935919;28;45455;-77
2021/06/26 09:34:55;;;;;;;;;8.50;8.50;;;;;23.77;72.56;101484.16;4934704;28;45380;-78
2021/06/26 09:37:26;;;;;;;;;10.25;8.75;;;;;24.83;70.35;101480.09;4934900;28;45667;-79
2021/06/26 09:39:57;;;;;;;;;9.75;9.50;;;;;26.27;67.07;101480.84;4939270;28;46535;-79
2021/06/26 09:42:30;;;;;;;;;8.00;6.50;;;;;27.70;64.72;101479.03;4938480;28;45732;-77
2021/06/26 09:44:59;;;;;;;;;8.25;8.25;;;;;29.01;62.05;101482.25;4939684;28;45521;-77
2021/06/26 09:47:42;;;;;;;;;8.50;8.25;;;;;30.31;60.10;101475.75;4939174;28;45368;-79
2021/06/26 09:50:19;;;;;;;;;6.00;6.00;;;;;31.02;56.51;101477.38;4924581;28;45990;-79
2021/06/26 09:52:47;;;;;;;;;11.75;8.25;;;;;30.95;54.29;101486.41;4939018;28;45747;-79
2021/06/26 09:55:28;;;;;;;;;7.25;6.25;;;;;30.80;54.78;101492.63;4937551;28;45294;-79
2021/06/26 09:57:59;;;;;;;;;6.75;6.75;;;;;30.65;53.50;101499.81;4939530;28;45593;-79
2021/06/26 10:00:27;;;;;;;;;8.75;6.00;;;;;30.14;52.08;101496.69;4939302;28;46078;-79
2021/06/26 10:02:52;;;;;;;;;6.00;6.00;;;;;29.53;52.64;101508.97;4937813;28;45619;-79
2021/06/26 10:05:19;;;;;;;;;8.25;7.25;;;;;29.20;53.08;101513.56;4939202;28;45415;-79
2021/06/26 10:07:47;;;;;;;;;7.00;7.00;;;;;28.66;53.45;101516.66;4938473;28;45503;-78
2021/06/26 10:10:14;;;;;;;;;6.50;6.50;;;;;28.04;53.67;101513.34;4937137;28;45329;-81
2021/06/26 10:12:40;;;;;;;;;9.00;7.75;;;;;27.55;54.39;101510.28;4944497;28;45274;-80
2021/06/26 10:15:08;;;;;;;;;8.25;5.75;;;;;27.25;55.61;101517.84;4943725;28;45435;-80
2021/06/26 10:17:34;;;;;;;;;8.00;6.00;;;;;26.88;55.38;101515.25;4944665;28;45578;-80
2021/06/26 10:20:00;;;;;;;;;8.75;7.00;;;;;26.52;56.07;101514.38;4927956;28;45314;-80
2021/06/26 10:22:26;;;;;;;;;5.75;5.75;;;;;26.30;55.35;101510.19;4944841;28;45755;-79
2021/06/26 10:24:52;;;;;;;;;7.00;6.25;;;;;26.19;55.89;101507.69;4942009;28;45550;-80
2021/06/26 10:27:23;;;;;;;;;7.75;7.50;;;;;26.29;55.81;101512.03;4943520;28;45611;-78
2021/06/26 10:29:49;;;;;;;;;5.50;5.50;;;;;26.53;55.77;101502.59;4942990;28;45460;-78
2021/06/26 10:32:17;;;;;;;;;7.50;7.50;;;;;26.65;54.64;101504.06;4943209;28;45390;-78
2021/06/26 10:34:48;;;;;;;;;6.25;6.25;;;;;26.76;55.65;101509.22;4942402;28;45463;-76
2021/06/26 10:37:22;;;;;;;;;6.25;6.25;;;;;26.69;54.25;101501.91;4942322;28;45445;-79
2021/06/26 10:40:01;;;;;;;;;7.00;7.00;;;;;26.75;56.05;101501.31;4941518;28;46256;-78
2021/06/26 10:42:38;;;;;;;;;7.75;6.50;;;;;27.04;55.25;101501.06;4942785;28;45512;-78
2021/06/26 10:45:06;;;;;;;;;10.25;8.00;;;;;27.27;54.20;101502.31;4941506;28;45455;-78
2021/06/26 10:47:39;;;;;;;;;6.50;6.00;;;;;27.65;53.77;101500.25;4942311;28;45644;-79
2021/06/26 10:50:22;;;;;;;;;8.00;6.50;;;;;27.74;52.05;101493.91;4927289;28;46299;-79
2021/06/26 10:52:51;;;;;;;;;7.75;7.75;;;;;27.55;52.40;101492.25;4941991;28;45338;-77
2021/06/26 10:55:31;;;;;;;;;11.50;7.50;;;;;27.48;52.39;101493.88;4941922;28;45388;-76
2021/06/26 10:57:57;;;;;;;;;9.00;9.00;;;;;27.61;52.92;101489.91;4938086;28;45475;-77
2021/06/26 11:00:34;;;;;;;;;9.25;7.25;;;;;27.65;54.08;101491.28;4936011;28;46125;-76
2021/06/26 11:03:00;;;;;;;;;9.75;9.00;;;;;27.61;54.07;101489.91;4935340;28;45905;-77
2021/06/26 11:05:31;;;;;;;;;10.00;8.25;;;;;27.38;54.10;101492.28;4934612;28;45503;-77
2021/06/26 11:07:57;;;;;;;;;6.75;6.75;;;;;27.12;54.12;101506.56;4936074;28;45294;-77
2021/06/26 11:10:23;;;;;;;;;10.50;8.00;;;;;26.83;54.76;101495.13;4936098;28;46084;-77
2021/06/26 11:12:49;;;;;;;;;8.25;7.50;;;;;26.51;55.39;101488.38;4937029;28;45668;-76
2021/06/26 11:15:24;;;;;;;;;7.75;6.50;;;;;26.18;56.97;101492.53;4938410;28;45409;-77
2021/06/26 11:17:49;;;;;;;;;9.00;8.50;;;;;25.88;56.83;101491.78;4935155;28;45430;-76
2021/06/26 11:20:18;;;;;;;;;8.50;8.50;;;;;25.66;56.53;101489.41;4945360;28;46069;-77